Time;durP1;ratioP1;P1;durP2;ratioP2;P2;SDS_P1;SDS_P2;PMS_P1;PMS_P2;Temp;Humidity;BMP_temperature;BMP_pressure;BME280_temperature;BME280_humidity;BME280_pressure;Samples;Min_cycle;Max_cycle;Signal;HPM_P1;HPM_P2
2023/12/03 00:02:24;;;;;;;13.82;9.15;;;;;;;;;;5045664;28;20400;-83
2023/12/03 00:04:52;;;;;;;14.68;8.45;;;;;;;;;;5045266;28;20041;-82
2023/12/03 00:07:18;;;;;;;17.15;10.18;;;;;;;;;;5045125;28;20097;-82
2023/12/03 00:09:47;;;;;;;10.15;6.30;;;;;;;;;;5066595;23;20030;-84
2023/12/03 00:12:12;;;;;;;6.97;5.47;;;;;;;;;;4973217;28;20074;-83
2023/12/03 00:14:38;;;;;;;12.35;6.10;;;;;;;;;;4985840;28;20015;-83
2023/12/03 00:17:04;;;;;;;8.18;5.32;;;;;;;;;;4984100;28;20137;-83
2023/12/03 00:19:29;;;;;;;13.38;7.72;;;;;;;;;;4984196;28;20466;-84
2023/12/03 00:21:54;;;;;;;11.52;5.68;;;;;;;;;;5002410;28;20146;-82
2023/12/03 00:24:20;;;;;;;8.02;5.20;;;;;;;;;;4984937;28;20022;-83
2023/12/03 00:26:45;;;;;;;9.32;5.63;;;;;;;;;;4985184;28;20031;-83
2023/12/03 00:29:11;;;;;;;6.15;3.67;;;;;;;;;;4984175;28;20038;-83
2023/12/03 00:31:36;;;;;;;10.40;5.22;;;;;;;;;;4984419;28;20461;-83
2023/12/03 00:34:03;;;;;;;6.88;4.50;;;;;;;;;;4983508;28;20034;-84
2023/12/03 00:36:28;;;;;;;7.28;4.18;;;;;;;;;;5000860;28;20058;-83
2023/12/03 00:38:54;;;;;;;11.18;5.93;;;;;;;;;;4983490;28;20027;-85
2023/12/03 00:41:19;;;;;;;6.88;4.57;;;;;;;;;;4982123;28;20113;-83
2023/12/03 00:43:44;;;;;;;8.57;4.85;;;;;;;;;;4999753;28;20048;-84
2023/12/03 00:46:10;;;;;;;7.85;4.20;;;;;;;;;;5000909;28;20030;-84
2023/12/03 00:48:35;;;;;;;5.05;3.75;;;;;;;;;;4983087;28;20050;-84
2023/12/03 00:51:00;;;;;;;7.45;4.32;;;;;;;;;;5000550;28;20026;-84
2023/12/03 00:53:26;;;;;;;36.05;6.82;;;;;;;;;;4983872;28;20038;-84
2023/12/03 00:55:52;;;;;;;8.95;5.15;;;;;;;;;;4985669;28;20038;-84
2023/12/03 00:58:18;;;;;;;22.23;5.40;;;;;;;;;;4987540;28;20030;-84
2023/12/03 01:00:43;;;;;;;8.93;5.55;;;;;;;;;;4986950;28;20066;-84
2023/12/03 01:03:08;;;;;;;14.90;5.07;;;;;;;;;;4986306;28;20033;-85
2023/12/03 01:05:33;;;;;;;6.93;4.82;;;;;;;;;;4989214;28;20441;-84
2023/12/03 01:07:59;;;;;;;8.43;4.47;;;;;;;;;;5006215;28;20298;-82
2023/12/03 01:10:24;;;;;;;6.30;4.05;;;;;;;;;;5005004;28;20038;-84
2023/12/03 01:12:50;;;;;;;9.48;3.80;;;;;;;;;;5004993;28;20034;-83
2023/12/03 01:15:15;;;;;;;45.65;5.63;;;;;;;;;;5015575;28;20117;-81
2023/12/03 01:17:40;;;;;;;33.47;6.03;;;;;;;;;;5003448;28;20022;-82
2023/12/03 01:20:07;;;;;;;48.05;5.90;;;;;;;;;;5003650;28;20046;-82
2023/12/03 01:22:32;;;;;;;8.70;5.20;;;;;;;;;;4985174;28;20054;-83
2023/12/03 01:24:58;;;;;;;7.50;5.00;;;;;;;;;;5003039;28;20022;-83
2023/12/03 01:27:23;;;;;;;8.82;4.75;;;;;;;;;;4986549;28;20061;-85
2023/12/03 01:29:48;;;;;;;6.57;4.32;;;;;;;;;;4986409;28;20100;-84
2023/12/03 01:32:14;;;;;;;8.30;3.95;;;;;;;;;;4984957;28;20065;-83
2023/12/03 01:34:39;;;;;;;9.02;4.60;;;;;;;;;;4982838;28;20058;-83
2023/12/03 01:37:05;;;;;;;6.32;4.43;;;;;;;;;;4983325;28;20038;-82
2023/12/03 01:39:30;;;;;;;7.97;4.55;;;;;;;;;;4982943;28;20039;-83
2023/12/03 01:41:56;;;;;;;6.25;4.20;;;;;;;;;;4983228;28;20476;-83
2023/12/03 01:44:21;;;;;;;6.47;4.88;;;;;;;;;;4982778;28;20053;-82
2023/12/03 01:46:48;;;;;;;9.63;4.63;;;;;;;;;;4985245;28;20110;-83
2023/12/03 01:49:14;;;;;;;9.73;5.95;;;;;;;;;;4986484;28;20035;-83
2023/12/03 01:51:39;;;;;;;8.05;4.03;;;;;;;;;;5004688;28;20034;-84
2023/12/03 01:54:05;;;;;;;6.47;4.63;;;;;;;;;;5004991;28;20026;-83
2023/12/03 01:56:31;;;;;;;6.90;4.97;;;;;;;;;;5006452;28;20038;-83
2023/12/03 01:58:57;;;;;;;9.40;5.43;;;;;;;;;;5005526;28;20140;-81
2023/12/03 02:01:22;;;;;;;10.05;5.95;;;;;;;;;;5008062;28;20043;-82
2023/12/03 02:03:47;;;;;;;9.75;5.45;;;;;;;;;;4982719;28;20049;-83
2023/12/03 02:06:13;;;;;;;13.25;6.45;;;;;;;;;;4983624;28;20061;-82
2023/12/03 02:08:39;;;;;;;10.18;5.30;;;;;;;;;;4967133;28;20037;-84
2023/12/03 02:11:06;;;;;;;12.98;6.93;;;;;;;;;;4982642;28;20035;-82
2023/12/03 02:13:33;;;;;;;8.75;5.05;;;;;;;;;;5007117;28;20649;-83
2023/12/03 02:15:59;;;;;;;6.57;4.57;;;;;;;;;;5018295;28;20541;-83
2023/12/03 02:18:25;;;;;;;37.78;6.55;;;;;;;;;;4986260;28;20030;-83
2023/12/03 02:20:51;;;;;;;10.40;5.63;;;;;;;;;;5014970;28;20030;-83
2023/12/03 02:23:16;;;;;;;6.35;4.38;;;;;;;;;;4994525;28;20077;-84
2023/12/03 02:25:42;;;;;;;8.75;5.35;;;;;;;;;;5007391;28;20045;-83
2023/12/03 02:28:07;;;;;;;9.25;5.65;;;;;;;;;;4989771;28;20037;-82
2023/12/03 02:30:33;;;;;;;12.18;6.00;;;;;;;;;;4982639;28;20078;-84
2023/12/03 02:32:58;;;;;;;16.88;4.60;;;;;;;;;;4986617;28;20037;-83
2023/12/03 02:35:24;;;;;;;7.78;4.80;;;;;;;;;;4981557;28;20082;-83
2023/12/03 02:37:49;;;;;;;9.35;5.50;;;;;;;;;;4989914;28;20040;-84
2023/12/03 02:40:15;;;;;;;6.70;4.15;;;;;;;;;;5003124;28;20521;-85
2023/12/03 02:42:40;;;;;;;6.97;4.65;;;;;;;;;;5002423;28;20027;-84
2023/12/03 02:45:07;;;;;;;6.80;4.18;;;;;;;;;;5002601;28;20018;-83
2023/12/03 02:47:32;;;;;;;6.95;4.25;;;;;;;;;;5002592;28;20069;-83
2023/12/03 02:49:57;;;;;;;7.30;3.78;;;;;;;;;;5012535;28;20026;-83
2023/12/03 02:52:23;;;;;;;11.25;3.97;;;;;;;;;;5002806;28;20038;-84
2023/12/03 02:54:48;;;;;;;8.05;4.65;;;;;;;;;;4999294;28;20038;-85
2023/12/03 02:57:13;;;;;;;7.28;4.45;;;;;;;;;;4981233;28;20035;-83
2023/12/03 02:59:39;;;;;;;8.75;4.93;;;;;;;;;;4999232;28;20030;-81
2023/12/03 03:02:04;;;;;;;7.15;4.50;;;;;;;;;;5001574;28;20094;-83
2023/12/03 03:04:29;;;;;;;10.43;4.82;;;;;;;;;;5000357;28;20077;-83
2023/12/03 03:06:55;;;;;;;11.55;5.15;;;;;;;;;;5000810;28;20038;-82
2023/12/03 03:09:20;;;;;;;12.80;5.45;;;;;;;;;;5007966;28;20021;-82
2023/12/03 03:11:45;;;;;;;6.60;4.03;;;;;;;;;;4982580;28;20093;-83
2023/12/03 03:14:10;;;;;;;6.45;4.38;;;;;;;;;;4994682;28;20029;-83
2023/12/03 03:16:36;;;;;;;7.03;4.70;;;;;;;;;;5000218;28;20050;-82
2023/12/03 03:19:01;;;;;;;6.03;4.25;;;;;;;;;;4988499;28;20114;-82
2023/12/03 03:21:26;;;;;;;7.43;3.97;;;;;;;;;;5003963;28;20037;-83
2023/12/03 03:23:51;;;;;;;9.15;5.38;;;;;;;;;;4989570;28;20061;-84
2023/12/03 03:26:17;;;;;;;7.00;4.70;;;;;;;;;;4997367;28;20390;-85
2023/12/03 03:28:42;;;;;;;9.05;4.93;;;;;;;;;;5001585;28;20026;-83
2023/12/03 03:31:10;;;;;;;7.75;4.80;;;;;;;;;;5002285;28;20092;-82
2023/12/03 03:33:35;;;;;;;8.15;5.13;;;;;;;;;;5000071;28;20034;-82
2023/12/03 03:36:00;;;;;;;138.27;8.93;;;;;;;;;;4985209;28;20493;-82
2023/12/03 03:38:26;;;;;;;18.15;5.13;;;;;;;;;;4981451;28;20120;-83
2023/12/03 03:40:52;;;;;;;8.07;5.13;;;;;;;;;;5000987;28;20430;-83
2023/12/03 03:43:18;;;;;;;40.80;4.72;;;;;;;;;;4988183;28;20118;-82
2023/12/03 03:45:43;;;;;;;68.25;6.88;;;;;;;;;;5006551;28;20065;-82
2023/12/03 03:48:08;;;;;;;6.95;4.90;;;;;;;;;;4982060;28;20050;-83
2023/12/03 03:50:33;;;;;;;6.68;4.97;;;;;;;;;;4989345;28;20087;-81
2023/12/03 03:52:59;;;;;;;10.25;4.80;;;;;;;;;;4985278;28;20026;-81
2023/12/03 03:55:24;;;;;;;27.65;5.72;;;;;;;;;;5004091;28;20038;-81
2023/12/03 03:57:49;;;;;;;6.22;4.47;;;;;;;;;;4993908;28;20042;-80
2023/12/03 04:00:15;;;;;;;16.63;4.45;;;;;;;;;;5004225;28;20026;-81
2023/12/03 04:02:40;;;;;;;27.15;4.88;;;;;;;;;;5011463;28;20635;-81
2023/12/03 04:05:07;;;;;;;7.10;4.72;;;;;;;;;;4992499;28;20087;-80
2023/12/03 04:07:33;;;;;;;9.13;5.30;;;;;;;;;;5007467;28;20109;-80
2023/12/03 04:09:58;;;;;;;10.45;5.60;;;;;;;;;;5003878;28;20030;-79
2023/12/03 04:12:23;;;;;;;11.32;5.72;;;;;;;;;;4980175;28;20025;-79
2023/12/03 04:14:49;;;;;;;8.68;5.07;;;;;;;;;;4992746;28;20018;-80
2023/12/03 04:17:14;;;;;;;5.13;3.40;;;;;;;;;;5004753;28;20639;-78
2023/12/03 04:19:40;;;;;;;13.02;5.40;;;;;;;;;;4997808;28;20495;-80
2023/12/03 04:22:05;;;;;;;14.82;5.90;;;;;;;;;;5002814;28;20038;-80
2023/12/03 04:24:30;;;;;;;8.77;4.25;;;;;;;;;;5005395;28;20041;-80
2023/12/03 04:26:56;;;;;;;8.40;4.93;;;;;;;;;;4999623;28;20017;-83
2023/12/03 04:29:21;;;;;;;7.55;5.22;;;;;;;;;;4989106;28;20122;-79
2023/12/03 04:31:47;;;;;;;12.18;5.32;;;;;;;;;;5001230;28;20057;-79
2023/12/03 04:34:12;;;;;;;26.25;5.85;;;;;;;;;;5007984;28;20034;-79
2023/12/03 04:36:37;;;;;;;6.78;4.55;;;;;;;;;;5005225;28;20045;-80
2023/12/03 04:39:04;;;;;;;6.57;3.78;;;;;;;;;;5008999;28;20023;-81
2023/12/03 04:41:34;;;;;;;15.05;6.15;;;;;;;;;;5004225;28;20027;-79
2023/12/03 04:43:59;;;;;;;8.40;5.55;;;;;;;;;;5020801;28;20409;-81
2023/12/03 04:46:24;;;;;;;39.67;6.10;;;;;;;;;;5013173;28;20045;-82
2023/12/03 04:48:49;;;;;;;9.38;5.18;;;;;;;;;;5002657;28;20051;-81
2023/12/03 04:51:15;;;;;;;7.07;4.47;;;;;;;;;;5002340;28;20026;-79
2023/12/03 04:53:40;;;;;;;6.05;3.63;;;;;;;;;;5012326;28;20062;-79
2023/12/03 04:56:06;;;;;;;6.60;4.20;;;;;;;;;;5015590;28;20065;-79
2023/12/03 04:58:31;;;;;;;14.82;3.60;;;;;;;;;;5004354;28;20558;-81
2023/12/03 05:00:57;;;;;;;6.50;4.20;;;;;;;;;;4987173;28;20046;-79
2023/12/03 05:03:22;;;;;;;6.22;4.20;;;;;;;;;;5010062;28;20042;-82
2023/12/03 05:05:47;;;;;;;9.35;4.55;;;;;;;;;;4984168;28;20034;-82
2023/12/03 05:08:13;;;;;;;4.05;3.28;;;;;;;;;;4997981;28;20027;-81
2023/12/03 05:10:38;;;;;;;4.10;3.40;;;;;;;;;;5014241;28;20352;-81
2023/12/03 05:13:03;;;;;;;6.45;3.67;;;;;;;;;;5012128;28;20097;-80
2023/12/03 05:15:29;;;;;;;5.32;4.07;;;;;;;;;;4991879;28;20033;-80
2023/12/03 05:17:54;;;;;;;4.68;3.78;;;;;;;;;;4993059;28;20136;-78
2023/12/03 05:20:19;;;;;;;5.25;3.70;;;;;;;;;;5007998;28;20031;-80
2023/12/03 05:22:44;;;;;;;7.50;3.75;;;;;;;;;;5016811;28;20049;-81
2023/12/03 05:25:10;;;;;;;17.48;4.78;;;;;;;;;;4995216;28;20035;-79
2023/12/03 05:27:36;;;;;;;22.23;4.85;;;;;;;;;;5014913;28;20044;-80
2023/12/03 05:30:04;;;;;;;3.53;2.75;;;;;;;;;;4993174;28;20108;-82
2023/12/03 05:32:29;;;;;;;8.15;4.50;;;;;;;;;;4983826;28;20026;-81
2023/12/03 05:34:54;;;;;;;9.70;5.28;;;;;;;;;;5004265;28;20060;-81
2023/12/03 05:37:20;;;;;;;7.25;4.13;;;;;;;;;;5009452;28;20026;-80
2023/12/03 05:39:46;;;;;;;6.97;4.40;;;;;;;;;;5005602;28;20149;-81
2023/12/03 05:42:13;;;;;;;12.98;4.53;;;;;;;;;;5011567;28;20528;-81
2023/12/03 05:44:38;;;;;;;7.97;4.03;;;;;;;;;;5011534;28;20494;-80
2023/12/03 05:47:03;;;;;;;8.60;4.32;;;;;;;;;;4992373;28;20038;-81
2023/12/03 05:49:29;;;;;;;7.38;4.35;;;;;;;;;;4994193;28;20093;-81
2023/12/03 05:51:54;;;;;;;7.85;3.42;;;;;;;;;;5016918;28;20046;-81
2023/12/03 05:54:19;;;;;;;8.70;4.43;;;;;;;;;;4997511;28;20019;-80
2023/12/03 05:56:45;;;;;;;9.40;3.30;;;;;;;;;;5000170;28;20041;-81
2023/12/03 05:59:11;;;;;;;4.68;2.97;;;;;;;;;;4987079;28;20125;-80
2023/12/03 06:01:36;;;;;;;6.32;4.18;;;;;;;;;;4999259;28;20474;-81
2023/12/03 06:04:06;;;;;;;9.98;3.97;;;;;;;;;;5016138;28;20096;-81
2023/12/03 06:06:32;;;;;;;8.63;4.88;;;;;;;;;;5004222;28;20035;-81
2023/12/03 06:08:57;;;;;;;5.93;3.38;;;;;;;;;;4985067;28;20434;-80
2023/12/03 06:11:22;;;;;;;6.57;3.67;;;;;;;;;;5008622;28;20077;-82
2023/12/03 06:13:48;;;;;;;5.95;2.95;;;;;;;;;;5001294;28;20038;-83
2023/12/03 06:16:13;;;;;;;6.38;3.60;;;;;;;;;;5019885;28;20045;-83
2023/12/03 06:18:38;;;;;;;9.07;5.38;;;;;;;;;;4997333;28;20052;-79
2023/12/03 06:21:04;;;;;;;3.40;2.97;;;;;;;;;;4991404;28;20551;-82
2023/12/03 06:23:29;;;;;;;7.88;3.20;;;;;;;;;;4993698;28;20046;-82
2023/12/03 06:25:55;;;;;;;19.38;7.53;;;;;;;;;;4982438;28;20062;-82
2023/12/03 06:28:20;;;;;;;19.77;6.90;;;;;;;;;;5019522;28;20045;-80
2023/12/03 06:30:47;;;;;;;12.10;5.22;;;;;;;;;;4984504;28;20586;-81
2023/12/03 06:33:14;;;;;;;6.90;4.05;;;;;;;;;;5008436;28;20018;-82
2023/12/03 06:35:40;;;;;;;7.75;4.80;;;;;;;;;;4993999;28;20079;-81
2023/12/03 06:38:06;;;;;;;11.85;5.05;;;;;;;;;;5008863;28;20045;-79
2023/12/03 06:40:31;;;;;;;6.28;3.92;;;;;;;;;;5009795;28;20041;-82
2023/12/03 06:42:56;;;;;;;5.85;3.78;;;;;;;;;;4999655;28;20034;-82
2023/12/03 06:45:22;;;;;;;7.80;4.38;;;;;;;;;;4988587;28;20478;-81
2023/12/03 06:47:47;;;;;;;6.90;4.38;;;;;;;;;;4979407;28;20023;-82
2023/12/03 06:50:12;;;;;;;8.65;4.45;;;;;;;;;;4985937;28;20118;-81
2023/12/03 06:52:37;;;;;;;8.70;4.68;;;;;;;;;;5007690;28;20030;-81
2023/12/03 06:55:03;;;;;;;8.65;4.53;;;;;;;;;;4995908;28;20068;-82
2023/12/03 06:57:28;;;;;;;7.03;4.72;;;;;;;;;;4993704;28;20069;-80
2023/12/03 06:59:53;;;;;;;7.82;4.72;;;;;;;;;;5011686;28;20099;-78
2023/12/03 07:02:19;;;;;;;6.65;4.10;;;;;;;;;;4996061;28;20098;-79
2023/12/03 07:04:44;;;;;;;13.55;5.20;;;;;;;;;;4981967;28;20094;-80
2023/12/03 07:07:09;;;;;;;6.53;4.03;;;;;;;;;;4996690;28;20039;-81
2023/12/03 07:09:35;;;;;;;33.58;4.32;;;;;;;;;;4985752;28;20034;-79
2023/12/03 07:12:00;;;;;;;9.57;4.05;;;;;;;;;;4985197;28;20038;-82
2023/12/03 07:14:25;;;;;;;9.82;5.07;;;;;;;;;;4992834;28;20038;-80
2023/12/03 07:16:50;;;;;;;7.32;4.32;;;;;;;;;;4998599;28;20108;-82
2023/12/03 07:19:16;;;;;;;17.10;4.03;;;;;;;;;;4997415;28;20387;-82
2023/12/03 07:21:41;;;;;;;6.32;4.10;;;;;;;;;;4975690;28;20216;-80
2023/12/03 07:24:07;;;;;;;6.72;4.30;;;;;;;;;;4984904;28;20502;-83
2023/12/03 07:26:33;;;;;;;8.18;4.10;;;;;;;;;;4985971;28;20104;-83
2023/12/03 07:28:58;;;;;;;12.15;6.30;;;;;;;;;;4993963;28;20046;-82
2023/12/03 07:31:23;;;;;;;8.73;5.47;;;;;;;;;;4988507;28;20040;-82
2023/12/03 07:33:49;;;;;;;13.35;5.00;;;;;;;;;;4983226;28;20045;-82
2023/12/03 07:36:14;;;;;;;4.28;3.53;;;;;;;;;;4992155;28;20034;-80
2023/12/03 07:38:39;;;;;;;6.90;4.53;;;;;;;;;;4986830;28;20026;-82
2023/12/03 07:41:13;;;;;;;8.85;3.45;;;;;;;;;;4997406;28;20467;-79
2023/12/03 07:43:39;;;;;;;7.18;3.97;;;;;;;;;;4977321;28;20045;-82
2023/12/03 07:46:05;;;;;;;8.40;4.47;;;;;;;;;;4986900;28;20039;-83
2023/12/03 07:48:30;;;;;;;26.60;4.65;;;;;;;;;;4981658;28;20133;-83
2023/12/03 07:50:56;;;;;;;16.00;3.72;;;;;;;;;;4978927;28;20486;-81
2023/12/03 07:53:21;;;;;;;17.35;4.65;;;;;;;;;;4976881;28;20116;-81
2023/12/03 07:55:46;;;;;;;6.93;4.60;;;;;;;;;;4993143;28;20041;-80
2023/12/03 07:58:11;;;;;;;7.85;4.88;;;;;;;;;;4982320;28;20035;-82
2023/12/03 08:00:38;;;;;;;27.45;4.43;;;;;;;;;;4979352;28;20042;-80
2023/12/03 08:03:04;;;;;;;8.48;5.13;;;;;;;;;;4995231;28;20026;-82
2023/12/03 08:05:29;;;;;;;51.97;5.60;;;;;;;;;;4986799;28;20578;-82
2023/12/03 08:07:54;;;;;;;345.77;16.45;;;;;;;;;;4988823;28;20089;-82
2023/12/03 08:10:19;;;;;;;9.23;5.38;;;;;;;;;;4983116;28;20106;-81
2023/12/03 08:12:45;;;;;;;112.60;8.73;;;;;;;;;;4980286;28;20580;-80
2023/12/03 08:15:10;;;;;;;10.85;6.07;;;;;;;;;;4993826;28;20006;-81
2023/12/03 08:17:35;;;;;;;215.80;15.02;;;;;;;;;;4992624;28;20093;-82
2023/12/03 08:20:01;;;;;;;86.28;11.95;;;;;;;;;;4993696;28;20035;-83
2023/12/03 08:22:26;;;;;;;57.45;9.60;;;;;;;;;;4994528;28;20035;-82
2023/12/03 08:24:52;;;;;;;43.95;10.20;;;;;;;;;;4987063;28;20038;-82
2023/12/03 08:27:18;;;;;;;14.80;7.45;;;;;;;;;;4982245;28;20037;-82
2023/12/03 08:29:43;;;;;;;48.90;10.88;;;;;;;;;;5004657;28;20025;-82
2023/12/03 08:32:08;;;;;;;53.42;10.35;;;;;;;;;;4995877;28;20395;-81
2023/12/03 08:34:33;;;;;;;77.40;12.70;;;;;;;;;;5005860;28;20045;-81
2023/12/03 08:36:59;;;;;;;31.83;8.77;;;;;;;;;;5002399;28;20529;-81
2023/12/03 08:39:24;;;;;;;287.65;19.67;;;;;;;;;;5006618;28;20046;-82
2023/12/03 08:41:49;;;;;;;15.85;7.95;;;;;;;;;;4980483;28;20090;-81
2023/12/03 08:44:15;;;;;;;54.78;12.18;;;;;;;;;;4994461;28;20108;-80
2023/12/03 08:46:40;;;;;;;13.10;6.53;;;;;;;;;;4995223;28;20030;-80
2023/12/03 08:49:05;;;;;;;12.00;7.38;;;;;;;;;;4992785;28;20056;-81
2023/12/03 08:51:30;;;;;;;17.25;7.05;;;;;;;;;;4987658;28;20043;-81
2023/12/03 08:53:55;;;;;;;9.73;6.85;;;;;;;;;;4990075;28;20022;-82
2023/12/03 08:56:21;;;;;;;13.77;8.38;;;;;;;;;;4984118;28;20034;-82
2023/12/03 08:58:46;;;;;;;13.15;7.60;;;;;;;;;;4978034;28;20597;-81
2023/12/03 09:01:12;;;;;;;13.73;7.45;;;;;;;;;;4981429;28;20035;-81
2023/12/03 09:03:40;;;;;;;13.10;7.10;;;;;;;;;;4989012;28;20077;-82
2023/12/03 09:06:05;;;;;;;21.38;8.43;;;;;;;;;;4992491;28;20475;-83
2023/12/03 09:08:31;;;;;;;14.88;7.97;;;;;;;;;;5000737;28;20030;-82
2023/12/03 09:10:56;;;;;;;21.13;9.60;;;;;;;;;;4986519;28;20043;-81
2023/12/03 09:13:21;;;;;;;14.98;7.60;;;;;;;;;;4979958;28;20058;-82
2023/12/03 09:15:47;;;;;;;14.45;7.72;;;;;;;;;;4984650;28;20119;-81
2023/12/03 09:18:12;;;;;;;15.52;8.80;;;;;;;;;;4995441;28;20413;-82
2023/12/03 09:20:37;;;;;;;14.40;7.95;;;;;;;;;;4999615;28;20038;-80
2023/12/03 09:23:03;;;;;;;10.90;7.03;;;;;;;;;;5002289;28;20042;-81
2023/12/03 09:25:28;;;;;;;10.95;7.07;;;;;;;;;;5001269;28;20474;-82
2023/12/03 09:27:54;;;;;;;15.20;8.60;;;;;;;;;;4996420;28;20111;-81
2023/12/03 09:30:19;;;;;;;15.10;9.38;;;;;;;;;;5008671;28;20022;-82
2023/12/03 09:32:44;;;;;;;15.13;8.80;;;;;;;;;;5013088;28;20404;-82
2023/12/03 09:35:09;;;;;;;14.10;8.50;;;;;;;;;;5000114;28;20441;-82
2023/12/03 09:37:35;;;;;;;16.63;9.77;;;;;;;;;;4997600;28;20336;-82
2023/12/03 09:40:02;;;;;;;12.88;7.30;;;;;;;;;;5000808;28;20041;-81
2023/12/03 09:42:29;;;;;;;11.57;7.30;;;;;;;;;;5017641;28;20089;-82
2023/12/03 09:45:04;;;;;;;11.45;6.53;;;;;;;;;;5000554;28;20101;-83
2023/12/03 09:47:36;;;;;;;12.52;7.32;;;;;;;;;;4990614;28;20070;-82
2023/12/03 09:50:04;;;;;;;12.27;6.63;;;;;;;;;;5013148;28;20053;-81
2023/12/03 09:52:34;;;;;;;11.73;6.75;;;;;;;;;;5018895;28;20052;-82
2023/12/03 09:55:00;;;;;;;17.23;9.63;;;;;;;;;;4990171;28;20603;-82
2023/12/03 09:57:30;;;;;;;7.00;4.78;;;;;;;;;;5015627;28;20050;-81
2023/12/03 10:00:01;;;;;;;8.57;5.95;;;;;;;;;;5003989;28;20025;-82
2023/12/03 10:02:29;;;;;;;7.80;5.07;;;;;;;;;;4999575;28;20128;-79
2023/12/03 10:04:57;;;;;;;7.93;5.68;;;;;;;;;;5005645;28;20034;-82
2023/12/03 10:07:26;;;;;;;7.60;4.53;;;;;;;;;;4994536;28;20037;-81
2023/12/03 10:09:54;;;;;;;8.55;5.22;;;;;;;;;;4991382;28;20042;-82
2023/12/03 10:12:20;;;;;;;10.32;6.43;;;;;;;;;;4999501;28;20434;-83
2023/12/03 10:14:45;;;;;;;10.80;6.70;;;;;;;;;;5002544;28;20102;-81
2023/12/03 10:17:19;;;;;;;10.07;6.40;;;;;;;;;;4991204;28;20122;-82
2023/12/03 10:19:44;;;;;;;8.35;5.22;;;;;;;;;;4996065;28;20402;-83
2023/12/03 10:22:10;;;;;;;12.65;7.53;;;;;;;;;;5002164;28;20041;-83
2023/12/03 10:24:45;;;;;;;12.02;6.68;;;;;;;;;;5000383;28;20037;-82
2023/12/03 10:27:10;;;;;;;9.80;6.35;;;;;;;;;;4993620;28;20049;-84
2023/12/03 10:29:36;;;;;;;8.80;6.45;;;;;;;;;;5002139;28;20021;-82
2023/12/03 10:32:02;;;;;;;9.38;5.80;;;;;;;;;;5012959;28;20037;-82
2023/12/03 10:34:27;;;;;;;12.07;7.32;;;;;;;;;;4990507;28;20646;-83
2023/12/03 10:36:53;;;;;;;12.13;6.97;;;;;;;;;;5005381;28;20106;-83
2023/12/03 10:39:19;;;;;;;11.40;6.53;;;;;;;;;;4995664;28;20026;-83
2023/12/03 10:41:46;;;;;;;10.20;6.13;;;;;;;;;;4990365;28;20022;-83
2023/12/03 10:44:24;;;;;;;9.55;6.47;;;;;;;;;;4989601;28;20038;-80
2023/12/03 10:46:50;;;;;;;10.55;6.40;;;;;;;;;;4993971;28;20049;-83
2023/12/03 10:49:16;;;;;;;10.45;7.13;;;;;;;;;;4979804;28;20543;-83
2023/12/03 10:51:43;;;;;;;15.15;8.80;;;;;;;;;;5000561;28;20084;-78
2023/12/03 10:54:10;;;;;;;8.27;5.88;;;;;;;;;;5005610;28;20542;-78
2023/12/03 10:56:35;;;;;;;11.13;6.45;;;;;;;;;;5001003;28;20474;-78
2023/12/03 10:59:11;;;;;;;10.90;6.63;;;;;;;;;;4977439;28;20045;-78
2023/12/03 11:01:39;;;;;;;15.07;7.85;;;;;;;;;;4986119;28;20185;-77
2023/12/03 11:04:16;;;;;;;13.13;7.35;;;;;;;;;;4995911;28;20411;-77
2023/12/03 11:06:41;;;;;;;12.43;6.97;;;;;;;;;;4988566;28;20118;-77
2023/12/03 11:09:07;;;;;;;11.10;6.35;;;;;;;;;;4964816;28;20043;-77
2023/12/03 11:11:33;;;;;;;10.13;6.53;;;;;;;;;;4990453;28;20035;-77
2023/12/03 11:13:58;;;;;;;13.70;7.55;;;;;;;;;;4982368;28;20105;-78
2023/12/03 11:16:31;;;;;;;12.00;7.63;;;;;;;;;;4991734;28;20038;-77
2023/12/03 11:19:06;;;;;;;12.82;7.15;;;;;;;;;;4989621;28;20038;-77
2023/12/03 11:21:57;;;;;;;12.35;7.78;;;;;;;;;;5002877;28;20053;-77
2023/12/03 11:25:17;;;;;;;12.75;7.70;;;;;;;;;;4985546;28;20035;-77
2023/12/03 11:27:45;;;;;;;12.52;7.28;;;;;;;;;;4897468;29;20040;-78
2023/12/03 11:30:11;;;;;;;12.20;7.10;;;;;;;;;;4979176;28;20042;-78
2023/12/03 11:32:36;;;;;;;12.68;7.85;;;;;;;;;;5007550;28;20025;-78
2023/12/03 11:35:06;;;;;;;13.55;7.32;;;;;;;;;;4981337;28;20057;-78
2023/12/03 11:37:31;;;;;;;11.65;7.30;;;;;;;;;;5003549;28;20125;-78
2023/12/03 11:40:10;;;;;;;12.95;7.65;;;;;;;;;;5001536;28;20457;-77
2023/12/03 11:42:46;;;;;;;12.32;8.05;;;;;;;;;;4979976;28;20053;-77
2023/12/03 11:45:23;;;;;;;11.45;7.22;;;;;;;;;;4996252;28;20030;-77
2023/12/03 11:48:04;;;;;;;12.02;7.45;;;;;;;;;;5000135;28;20030;-78
2023/12/03 11:50:30;;;;;;;13.25;7.80;;;;;;;;;;5007021;28;20046;-78
2023/12/03 11:52:55;;;;;;;11.50;7.35;;;;;;;;;;5002163;28;20056;-78
2023/12/03 11:55:22;;;;;;;14.20;8.10;;;;;;;;;;5007011;28;20026;-78
2023/12/03 11:57:47;;;;;;;15.25;8.82;;;;;;;;;;5011025;28;20469;-78
2023/12/03 12:00:13;;;;;;;14.63;8.00;;;;;;;;;;5000380;28;20071;-78
2023/12/03 12:02:38;;;;;;;14.35;8.50;;;;;;;;;;5007320;28;20080;-77
2023/12/03 12:05:04;;;;;;;12.25;7.82;;;;;;;;;;4989453;28;20041;-77
2023/12/03 12:07:29;;;;;;;12.70;7.40;;;;;;;;;;4998016;28;20133;-77
2023/12/03 12:09:54;;;;;;;10.82;6.65;;;;;;;;;;5007346;28;20122;-77
2023/12/03 12:12:20;;;;;;;8.75;6.35;;;;;;;;;;5030105;23;20132;-76
2023/12/03 12:14:45;;;;;;;10.88;6.65;;;;;;;;;;4993129;28;20033;-77
2023/12/03 12:17:11;;;;;;;12.02;5.85;;;;;;;;;;4998843;28;20046;-78
2023/12/03 12:19:49;;;;;;;11.57;6.60;;;;;;;;;;4976637;28;20100;-77
2023/12/03 12:22:15;;;;;;;12.43;6.38;;;;;;;;;;5002124;28;20038;-77
2023/12/03 12:24:41;;;;;;;13.13;6.57;;;;;;;;;;5009989;28;20433;-77
2023/12/03 12:27:06;;;;;;;13.13;7.10;;;;;;;;;;5005174;28;20033;-77
2023/12/03 12:29:32;;;;;;;12.15;7.18;;;;;;;;;;4994175;28;20463;-77
2023/12/03 12:31:59;;;;;;;15.63;9.27;;;;;;;;;;5001550;28;20049;-77
2023/12/03 12:34:25;;;;;;;12.48;7.03;;;;;;;;;;5010340;28;20048;-78
2023/12/03 12:37:02;;;;;;;13.05;7.40;;;;;;;;;;5004525;28;20038;-78
2023/12/03 12:39:28;;;;;;;9.93;6.28;;;;;;;;;;5002517;28;20501;-77
2023/12/03 12:41:55;;;;;;;12.20;7.15;;;;;;;;;;4997240;28;20026;-78
2023/12/03 12:44:23;;;;;;;9.40;5.60;;;;;;;;;;5008657;28;20038;-77
2023/12/03 12:46:54;;;;;;;8.75;4.85;;;;;;;;;;5002066;28;20030;-77
2023/12/03 12:49:20;;;;;;;9.02;5.68;;;;;;;;;;4998150;28;20134;-77
2023/12/03 12:51:45;;;;;;;8.55;5.50;;;;;;;;;;5017051;28;20115;-78
2023/12/03 12:54:11;;;;;;;10.38;6.25;;;;;;;;;;5012884;28;20026;-77
2023/12/03 12:56:37;;;;;;;10.70;6.57;;;;;;;;;;5001188;28;20045;-78
2023/12/03 12:59:03;;;;;;;11.82;6.05;;;;;;;;;;4997330;28;20034;-77
2023/12/03 13:01:31;;;;;;;6.65;4.50;;;;;;;;;;4995450;28;20045;-76
2023/12/03 13:03:56;;;;;;;9.77;6.13;;;;;;;;;;4993281;28;20049;-76
2023/12/03 13:06:21;;;;;;;32.17;5.60;;;;;;;;;;5012854;28;20034;-78
2023/12/03 13:08:47;;;;;;;8.27;5.15;;;;;;;;;;4981748;28;20118;-77
2023/12/03 13:11:12;;;;;;;7.88;5.07;;;;;;;;;;5002142;28;20030;-77
2023/12/03 13:13:37;;;;;;;6.40;4.28;;;;;;;;;;4992974;28;20117;-77
2023/12/03 13:16:03;;;;;;;25.33;5.22;;;;;;;;;;4991515;28;20038;-77
2023/12/03 13:18:29;;;;;;;23.95;5.63;;;;;;;;;;4986273;28;20038;-77
2023/12/03 13:20:54;;;;;;;4.93;3.53;;;;;;;;;;4989870;28;20078;-77
2023/12/03 13:23:19;;;;;;;5.47;3.85;;;;;;;;;;4993593;28;20121;-77
2023/12/03 13:25:45;;;;;;;7.35;4.20;;;;;;;;;;4997606;28;20426;-76
2023/12/03 13:28:10;;;;;;;5.70;3.70;;;;;;;;;;4997963;28;20038;-77
2023/12/03 13:30:35;;;;;;;5.28;4.05;;;;;;;;;;4989668;28;20042;-77
2023/12/03 13:33:01;;;;;;;3.78;3.28;;;;;;;;;;5000262;28;20019;-77
2023/12/03 13:35:26;;;;;;;4.82;4.07;;;;;;;;;;5000543;28;20038;-77
2023/12/03 13:37:51;;;;;;;4.93;3.90;;;;;;;;;;4989140;28;20112;-77
2023/12/03 13:40:18;;;;;;;5.40;4.10;;;;;;;;;;4986945;28;20042;-78
2023/12/03 13:42:50;;;;;;;10.10;4.68;;;;;;;;;;5003695;28;20030;-77
2023/12/03 13:45:15;;;;;;;12.75;7.10;;;;;;;;;;5006048;28;20024;-76
2023/12/03 13:47:40;;;;;;;25.35;10.77;;;;;;;;;;5008125;28;20116;-76
2023/12/03 13:50:06;;;;;;;60.60;31.98;;;;;;;;;;5009443;28;20042;-77
2023/12/03 13:52:31;;;;;;;42.47;22.73;;;;;;;;;;5014132;28;20553;-78
2023/12/03 13:54:58;;;;;;;34.75;21.05;;;;;;;;;;5001337;28;20601;-78
2023/12/03 13:57:23;;;;;;;29.42;20.20;;;;;;;;;;5009869;28;20034;-77
2023/12/03 13:59:49;;;;;;;21.85;13.43;;;;;;;;;;5012356;28;20030;-76
2023/12/03 14:02:14;;;;;;;26.70;18.58;;;;;;;;;;5019027;28;20037;-78
2023/12/03 14:04:39;;;;;;;23.75;15.82;;;;;;;;;;5020783;28;20425;-77
2023/12/03 14:07:05;;;;;;;23.20;16.67;;;;;;;;;;5006932;28;20153;-76
2023/12/03 14:09:31;;;;;;;19.02;11.95;;;;;;;;;;5005687;28;20042;-76
2023/12/03 14:11:57;;;;;;;25.88;14.85;;;;;;;;;;5010264;28;20026;-77
2023/12/03 14:14:22;;;;;;;24.30;15.25;;;;;;;;;;5006274;28;20429;-75
2023/12/03 14:16:54;;;;;;;28.02;17.38;;;;;;;;;;5024116;28;20030;-76
2023/12/03 14:19:20;;;;;;;26.65;14.63;;;;;;;;;;5015167;28;20038;-76
2023/12/03 14:21:46;;;;;;;23.33;12.52;;;;;;;;;;5017302;28;20042;-77
2023/12/03 14:24:11;;;;;;;21.50;12.95;;;;;;;;;;5007774;28;20085;-76
2023/12/03 14:26:36;;;;;;;21.27;12.95;;;;;;;;;;5004909;28;20029;-76
2023/12/03 14:29:01;;;;;;;23.67;13.20;;;;;;;;;;5008207;28;20038;-78
2023/12/03 14:31:29;;;;;;;22.92;12.85;;;;;;;;;;4987448;28;20041;-77